KJRB/JRB METAR and TAF weather

Enter ICAO airport designator
Station Type Date Time Source
KJRB METAR 2019/02/16 02:56 UTC NOAA

KJRB 160256Z AUTO 26007G16KT 10SM OVC065 13/03 A2968 RMK AO2 SLP049 T01280028 53010


Station Type Date Time Source
KJRB Decoded METAR 2019/02/16 02:56 UTC NOAA

Station name not available
Feb 15, 2019 - 09:56 PM EST / 2019.02.16 0256 UTC
Wind: from the W (260 degrees) at 8 MPH (7 KT) gusting to 18 MPH (16 KT):0
Visibility: 10 mile(s):0
Sky conditions: overcast
Temperature: 55.0 F (12.8 C)
Dew Point: 37.0 F (2.8 C)
Relative Humidity: 50%
Pressure (altimeter): 29.68 in. Hg (1005 hPa)
Pressure tendency: 0.03 inches (1.0 hPa) higher than three hours ago
ob: KJRB 160256Z AUTO 26007G16KT 10SM OVC065 13/03 A2968 RMK AO2 SLP049 T01280028 53010
cycle: 3

Station Type Date Time Source
KJRB TAF UTC NOAA

Error!


Example: see airport list